Terminal Aerodrome Forecast
Issued by NWS

Home | Current Version | Previous Version | Graphics & Text | Print | Product List | Glossary On
Versions: 1 2 3 4 5 6 7 8 9 10 11 12 13
000
FTUS43 KABR 141100
TAFMBG
TAF
KMBG 141124Z 1412/1512 32006KT P6SM SCT250
     FM150000 VRB03KT P6SM BKN100
     FM150700 VRB03KT P6SM SKC=

USA.gov is the U.S. government's official web portal to all federal, state and local government web resources and services.